Data for 12/06/2007

Time Sea-Level Adjusted Pressure Absolute Pressure Temperature Relative Humidity Dew Point   
(mb) (inHg) (mb) (inHg) (C) (F) (%) (C) (F)
00:05 1012 29.88 841 24.83 1.6 34.9 62 -5 23
00:10 1012 29.88 841 24.83 1.8 35.2 59 -5.4 22.2
00:15 1012 29.88 841 24.83 1.9 35.4 60 -5.1 22.9
00:20 1012 29.88 841 24.83 1.9 35.5 59 -5.1 22.7
00:25 1012 29.88 841 24.83 2 35.6 59 -5.1 22.9
00:30 1012 29.88 841 24.83 2 35.6 61 -4.7 23.6
00:35 1012 29.88 841 24.83 1.9 35.4 61 -4.8 23.3
00:40 1012 29.88 841 24.83 1.8 35.2 62 -4.8 23.4
00:45 1012 29.88 841 24.83 1.8 35.2 61 -5 23
00:50 1012 29.88 841 24.83 1.8 35.3 62 -4.6 23.8
00:55 1012 29.88 841 24.83 1.8 35.3 61 -4.8 23.3
01:00 1012 29.88 841 24.83 1.9 35.5 61 -4.7 23.5
01:05 1012 29.88 841 24.83 1.9 35.4 62 -4.7 23.5
01:10 1012 29.88 842 24.86 1.9 35.4 62 -4.6 23.6
01:15 1012 29.88 842 24.86 1.8 35.2 63 -4.5 23.9
01:20 1012 29.88 842 24.86 1.6 34.8 68 -3.8 25.2
01:25 1012 29.88 842 24.86 1.1 34 77 -2.5 27.6
01:30 1012 29.88 842 24.86 0.4 32.8 83 -2.1 28.2
01:35 1012 29.88 842 24.86 0.1 32.1 87 -1.8 28.7
01:40 1012 29.88 842 24.86 -0.2 31.6 89 -1.8 28.8
01:45 1012 29.88 842 24.86 -0.3 31.4 90 -1.7 28.9
01:50 1012 29.88 842 24.86 -0.3 31.5 91 -1.5 29.2
01:55 1012 29.88 842 24.86 -0.3 31.4 92 -1.5 29.3
02:00 1012 29.88 842 24.86 -0.3 31.4 92 -1.4 29.4
02:05 1012 29.88 842 24.86 -0.4 31.3 93 -1.3 29.6
02:10 1012 29.88 842 24.86 -0.4 31.3 94 -1.3 29.7
02:15 1012 29.88 842 24.86 -0.4 31.2 94 -1.2 29.8
02:20 1012 29.88 842 24.86 -0.4 31.2 94 -1.3 29.7
02:25 1012 29.88 842 24.86 -0.5 31.1 94 -1.3 29.7
02:30 1012 29.88 842 24.86 -0.5 31.1 95 -1.2 29.8
02:35 1012 29.88 842 24.86 -0.5 31.1 94 -1.3 29.7
02:40 1012 29.88 842 24.86 -0.5 31 95 -1.3 29.7
02:45 1012 29.88 842 24.86 -0.6 30.9 95 -1.3 29.6
02:50 1012 29.88 842 24.86 -0.6 30.8 95 -1.4 29.5
02:55 1012 29.88 842 24.86 -0.7 30.8 95 -1.4 29.5
03:00 1012 29.88 842 24.86 -0.6 30.8 95 -1.4 29.5
03:05 1012 29.88 842 24.86 -0.6 30.9 95 -1.4 29.5
03:10 1012 29.88 842 24.86 -0.6 30.9 95 -1.3 29.6
03:15 1012 29.88 842 24.86 -0.5 31 95 -1.3 29.7
03:20 1012 29.88 842 24.86 -0.5 31.1 95 -1.3 29.7
03:25 1012 29.88 842 24.86 -0.4 31.2 94 -1.3 29.7
03:30 1012 29.88 841 24.83 -0.4 31.2 94 -1.3 29.6
03:35 1012 29.88 841 24.83 -0.5 31.2 94 -1.4 29.6
03:40 1012 29.88 841 24.83 -0.5 31.1 94 -1.4 29.6
03:45 1012 29.88 841 24.83 -0.5 31.1 94 -1.3 29.7
03:50 1012 29.88 841 24.83 -0.5 31.1 95 -1.3 29.7
03:55 1012 29.88 841 24.83 -0.6 31 95 -1.3 29.7
04:00 1012 29.88 841 24.83 -0.6 31 95 -1.3 29.6
04:05 1012 29.88 841 24.83 -0.6 31 95 -1.3 29.7
04:10 1012 29.88 841 24.83 -0.7 30.8 95 -1.4 29.6
04:15 1012 29.88 841 24.83 -0.7 30.8 95 -1.4 29.6
04:20 1012 29.88 841 24.83 -0.6 30.9 95 -1.3 29.6
04:25 1012 29.88 841 24.83 -0.6 30.9 94 -1.4 29.4
04:30 1012 29.88 841 24.83 -0.7 30.7 94 -1.5 29.3
04:35 1012 29.88 841 24.83 -0.7 30.8 93 -1.6 29.1
04:40 1012 29.88 841 24.83 -0.9 30.4 94 -1.7 28.9
04:45 1012 29.88 841 24.83 -1.1 30.1 95 -1.8 28.8
04:50 1012 29.88 841 24.83 -1.2 29.8 96 -1.8 28.7
04:55 1012 29.88 841 24.83 -1.4 29.4 96 -1.9 28.5
05:00 1012 29.88 841 24.83 -1.5 29.3 97 -2 28.5
05:05 1012 29.88 841 24.83 -1.4 29.4 96 -2 28.4
05:10 1012 29.88 841 24.83 -1.4 29.5 96 -2 28.4
05:15 1012 29.88 841 24.83 -1.3 29.7 95 -2 28.4
05:20 1012 29.88 841 24.83 -1.3 29.6 95 -2 28.4
05:25 1012 29.88 841 24.83 -1.4 29.5 95 -2.1 28.3
05:30 1012 29.88 841 24.83 -1.4 29.5 94 -2.2 28
05:35 1012 29.88 841 24.83 -1.4 29.6 93 -2.4 27.8
05:40 1012 29.88 841 24.83 -1.3 29.6 93 -2.3 27.8
05:45 1012 29.88 841 24.83 -1.3 29.7 92 -2.4 27.8
05:50 1012 29.88 841 24.83 -1 30.2 91 -2.3 27.8
05:55 1012 29.88 841 24.83 -1 30.3 90 -2.3 27.8
06:00 1012 29.88 841 24.83 -1 30.2 90 -2.4 27.6
06:05 1012 29.88 841 24.83 -1.2 29.8 92 -2.4 27.7
06:10 1012 29.88 841 24.83 -1.3 29.6 92 -2.5 27.5
06:15 1012 29.88 841 24.83 -1.3 29.7 92 -2.5 27.5
06:20 1012 29.88 841 24.83 -1.2 29.9 90 -2.6 27.4
06:25 1011 29.85 841 24.83 -0.9 30.4 89 -2.5 27.5
06:30 1012 29.88 841 24.83 -0.9 30.4 90 -2.3 27.8
06:35 1011 29.85 841 24.83 -1.1 30.1 90 -2.4 27.6
06:40 1011 29.85 841 24.83 -0.9 30.3 90 -2.4 27.7
06:45 1011 29.85 841 24.83 -1.1 30.1 91 -2.4 27.7
06:50 1011 29.85 841 24.83 -1.1 29.9 91 -2.5 27.5
06:55 1011 29.85 841 24.83 -1.1 30.1 90 -2.5 27.5
07:00 1011 29.85 841 24.83 -1 30.2 88 -2.7 27.2
07:05 1012 29.88 841 24.83 -1 30.2 89 -2.6 27.3
07:10 1012 29.88 841 24.83 -1.1 30 89 -2.7 27.2
07:15 1012 29.88 841 24.83 -1.1 30.1 89 -2.7 27.1
07:20 1012 29.88 841 24.83 -1 30.2 89 -2.6 27.3
07:25 1012 29.88 841 24.83 -1 30.3 91 -2.3 27.9
07:30 1012 29.88 841 24.83 -1.2 29.8 94 -2.1 28.3
07:35 1012 29.88 841 24.83 -1.4 29.4 95 -2.2 28.1
07:40 1012 29.88 841 24.83 -1.3 29.6 94 -2.2 28.1
07:45 1012 29.88 841 24.83 -1.3 29.6 95 -2.1 28.2
07:50 1011 29.85 841 24.83 -1.4 29.5 95 -2.2 28.1
07:55 1012 29.88 841 24.83 -1.4 29.5 94 -2.2 28
08:00 1012 29.88 841 24.83 -1.3 29.7 95 -2 28.4
08:05 1012 29.88 841 24.83 -1.2 29.9 95 -1.9 28.7
08:10 1012 29.88 841 24.83 -1.1 30 95 -1.9 28.6
08:15 1012 29.88 841 24.83 -1.1 30 92 -2.2 28
08:20 1012 29.88 841 24.83 -1.3 29.6 94 -2.2 28
08:25 1012 29.88 841 24.83 -1.4 29.4 91 -2.7 27.2
08:30 1012 29.88 841 24.83 -1.4 29.5 91 -2.7 27.1
08:35 1012 29.88 841 24.83 -1.3 29.6 90 -2.7 27.1
08:40 1012 29.88 841 24.83 -1.4 29.5 91 -2.7 27.1
08:45 1012 29.88 841 24.83 -1.3 29.6 92 -2.4 27.7
08:50 1012 29.88 841 24.83 -1.2 29.8 93 -2.2 28.1
08:55 1012 29.88 841 24.83 -1.2 29.8 95 -2 28.5
09:00 1012 29.88 841 24.83 -1.4 29.4 96 -2 28.4
09:05 1012 29.88 841 24.83 -1.6 29.2 96 -2.1 28.2
09:10 1012 29.88 841 24.83 -1.8 28.8 96 -2.3 27.9
09:15 1012 29.88 841 24.83 -1.8 28.8 96 -2.3 27.8
09:20 1012 29.88 841 24.83 -1.8 28.8 95 -2.5 27.5
09:25 1012 29.88 841 24.83 -1.8 28.8 94 -2.6 27.3
09:30 1012 29.88 841 24.83 -1.9 28.6 95 -2.6 27.4
09:35 1012 29.88 841 24.83 -1.9 28.5 95 -2.6 27.3
09:40 1012 29.88 841 24.83 -1.9 28.6 96 -2.5 27.5
09:45 1012 29.88 841 24.83 -2 28.4 96 -2.6 27.4
09:50 1012 29.88 841 24.83 -2 28.4 96 -2.6 27.4
09:55 1012 29.88 841 24.83 -2.1 28.2 96 -2.6 27.3
10:00 1012 29.88 841 24.83 -2.1 28.2 96 -2.7 27.2
10:05 1012 29.88 841 24.83 -2 28.4 95 -2.7 27.1
10:10 1012 29.88 841 24.83 -1.9 28.6 94 -2.7 27.1
10:15 1012 29.88 841 24.83 -2 28.5 94 -2.8 26.9
10:20 1012 29.88 841 24.83 -1.9 28.5 94 -2.8 26.9
10:25 1012 29.88 841 24.83 -1.9 28.5 94 -2.8 26.9
10:30 1012 29.88 841 24.83 -1.9 28.5 94 -2.8 27
10:35 1012 29.88 841 24.83 -1.9 28.5 94 -2.8 26.9
10:40 1012 29.88 841 24.83 -1.9 28.5 94 -2.8 26.9
10:45 1012 29.88 841 24.83 -1.7 28.9 93 -2.7 27.2
10:50 1012 29.88 841 24.83 -1.5 29.3 94 -2.4 27.7
10:55 1012 29.88 841 24.83 -1 30.2 90 -2.4 27.6
11:00 1012 29.88 841 24.83 -0.6 30.8 88 -2.4 27.8
11:05 1012 29.88 841 24.83 -0.5 31.1 88 -2.2 28
11:10 1012 29.88 841 24.83 -0.4 31.3 85 -2.6 27.4
11:15 1012 29.88 841 24.83 -0.2 31.7 83 -2.7 27.2
11:20 1012 29.88 841 24.83 -0.1 31.8 82 -2.7 27.1
11:25 1012 29.88 841 24.83 0 32.1 81 -2.8 27
11:30 1012 29.88 841 24.83 -0.1 31.8 83 -2.7 27.2
11:35 1011 29.85 841 24.83 -0.6 30.9 85 -2.9 26.9
11:40 1011 29.85 840 24.81 -0.7 30.7 84 -3.1 26.4
11:45 1011 29.85 840 24.81 -0.5 31 79 -3.7 25.4
11:50 1011 29.85 840 24.81 0.9 33.6 72 -3.6 25.6
11:55 1011 29.85 840 24.81 1.4 34.4 73 -3 26.7
12:00 1011 29.85 840 24.81 1 33.8 76 -2.8 27
12:05 1011 29.85 840 24.81 1 33.9 74 -3 26.5
12:10 1011 29.85 840 24.81 1.3 34.3 72 -3.2 26.2
12:15 1011 29.85 840 24.81 0.5 33 75 -3.4 26
12:20 1011 29.85 840 24.81 0.3 32.5 78 -3.1 26.4
12:25 1011 29.85 840 24.81 0.2 32.4 79 -2.9 26.7
12:30 1011 29.85 840 24.81 0.2 32.3 80 -2.8 27
12:35 1011 29.85 840 24.81 0.2 32.4 83 -2.3 27.8
12:40 1011 29.85 840 24.81 0.1 32.2 80 -2.9 26.8
12:45 1011 29.85 840 24.81 -0.1 31.8 80 -3.2 26.3
12:50 1011 29.85 840 24.81 -0.5 31.1 83 -3 26.6
12:55 1011 29.85 840 24.81 -0.3 31.5 78 -3.7 25.4
13:00 1011 29.85 840 24.81 -0.3 31.4 78 -3.6 25.4
13:05 1011 29.85 840 24.81 -0.7 30.7 79 -4 24.9
13:10 1011 29.85 840 24.81 -0.6 30.9 80 -3.7 25.4
13:15 1011 29.85 840 24.81 -0.3 31.4 77 -3.8 25.1
13:20 1010 29.83 840 24.81 -0.1 31.7 79 -3.3 26.1
13:25 1010 29.83 840 24.81 0.1 32.1 76 -3.7 25.3
13:30 1010 29.83 840 24.81 0.9 33.6 72 -3.7 25.4
13:35 1010 29.83 840 24.81 0.4 32.8 76 -3.4 25.9
13:40 1010 29.83 840 24.81 0.6 33.1 72 -3.9 25
13:45 1010 29.83 840 24.81 0.8 33.5 69 -4.2 24.4
13:50 1010 29.83 840 24.81 1 33.7 71 -3.7 25.4
13:55 1010 29.83 840 24.81 0.9 33.7 70 -3.9 25
14:00 1010 29.83 840 24.81 1.2 34.2 69 -3.8 25.1
14:05 1010 29.83 840 24.81 1.5 34.6 68 -3.9 25.1
14:10 1010 29.83 840 24.81 1.6 34.9 68 -3.7 25.4
14:15 1010 29.83 840 24.81 0.9 33.6 71 -3.9 25.1
14:20 1010 29.83 840 24.81 0.2 32.4 74 -3.9 24.9
14:25 1010 29.83 840 24.81 0.1 32.2 73 -4.1 24.5
14:30 1010 29.83 840 24.81 0.2 32.3 72 -4.2 24.5
14:35 1010 29.83 840 24.81 -0 32 75 -4 24.8
14:40 1010 29.83 839 24.78 -0.1 31.9 74 -4.1 24.6
14:45 1010 29.83 839 24.78 -0.1 31.8 74 -4.1 24.6
14:50 1010 29.83 839 24.78 -0.2 31.6 75 -4.1 24.6
14:55 1010 29.83 839 24.78 -0.4 31.4 76 -4.1 24.6
15:00 1010 29.83 839 24.78 -0.5 31.1 73 -4.8 23.4
15:05 1010 29.83 839 24.78 0.2 32.3 70 -4.6 23.7
15:10 1010 29.83 839 24.78 0.5 32.9 69 -4.6 23.7
15:15 1010 29.83 839 24.78 0.4 32.8 71 -4.2 24.5
15:20 1010 29.83 840 24.81 0.3 32.6 73 -3.9 25
15:25 1010 29.83 840 24.81 0.1 32.2 77 -3.4 25.9
15:30 1010 29.83 840 24.81 -0.2 31.6 78 -3.7 25.4
15:35 1010 29.83 840 24.81 -0.1 31.7 72 -4.6 23.8
15:40 1010 29.83 840 24.81 0.3 32.5 74 -3.8 25.2
15:45 1010 29.83 840 24.81 0.4 32.7 75 -3.6 25.6
15:50 1010 29.83 840 24.81 0.2 32.3 76 -3.7 25.4
15:55 1011 29.85 840 24.81 -0.3 31.5 76 -4 24.8
16:00 1011 29.85 840 24.81 -0.3 31.4 75 -4.2 24.5
16:05 1011 29.85 840 24.81 -0.8 30.5 79 -4 24.8
16:10 1011 29.85 840 24.81 -1.2 29.8 80 -4.2 24.5
16:15 1011 29.85 840 24.81 -1.2 29.8 80 -4.3 24.3
16:20 1011 29.85 840 24.81 -0.9 30.4 78 -4.2 24.4
16:25 1011 29.85 840 24.81 -0.7 30.7 78 -4.2 24.5
16:30 1011 29.85 840 24.81 -1.1 30.1 78 -4.4 24.1
16:35 1011 29.85 840 24.81 -1.2 29.9 79 -4.4 24.2
16:40 1011 29.85 840 24.81 -1.2 29.8 79 -4.3 24.2
16:45 1011 29.85 840 24.81 -1.2 29.8 78 -4.5 23.9
16:50 1011 29.85 840 24.81 -1.3 29.6 80 -4.4 24.1
16:55 1011 29.85 840 24.81 -1.4 29.4 80 -4.4 24.1
17:00 1011 29.85 840 24.81 -1.5 29.2 83 -4.1 24.6
17:05 1010 29.83 840 24.81 -1.6 29.1 83 -4.1 24.6
17:10 1010 29.83 840 24.81 -1.8 28.8 83 -4.3 24.3
17:15 1010 29.83 840 24.81 -1.9 28.5 83 -4.4 24
17:20 1010 29.83 840 24.81 -2.1 28.3 84 -4.4 24.2
17:25 1011 29.85 840 24.81 -2.2 28 84 -4.5 23.9
17:30 1011 29.85 840 24.81 -2.4 27.7 85 -4.5 23.9
17:35 1011 29.85 840 24.81 -2.4 27.7 84 -4.7 23.5
17:40 1011 29.85 840 24.81 -2.4 27.8 84 -4.7 23.5
17:45 1011 29.85 840 24.81 -2.3 27.9 83 -4.8 23.4
17:50 1011 29.85 840 24.81 -2.3 27.9 85 -4.5 23.8
17:55 1011 29.85 840 24.81 -2.4 27.8 84 -4.7 23.6
18:00 1011 29.85 840 24.81 -2.5 27.5 84 -4.8 23.4
18:05 1011 29.85 840 24.81 -2.6 27.4 86 -4.6 23.7
18:10 1011 29.85 840 24.81 -2.5 27.4 86 -4.6 23.7
18:15 1011 29.85 840 24.81 -2.5 27.4 86 -4.5 23.9
18:20 1011 29.85 840 24.81 -2.7 27.1 87 -4.6 23.7
18:25 1011 29.85 840 24.81 -2.9 26.7 88 -4.7 23.5
18:30 1011 29.85 840 24.81 -3.1 26.4 88 -4.9 23.3
18:35 1011 29.85 840 24.81 -3.2 26.2 88 -5 23
18:40 1011 29.85 840 24.81 -3.3 26 87 -5.1 22.7
18:45 1011 29.85 840 24.81 -3.2 26.2 86 -5.2 22.6
18:50 1011 29.85 840 24.81 -3.2 26.3 86 -5.1 22.7
18:55 1011 29.85 840 24.81 -3.3 26.1 87 -5.2 22.7
19:00 1011 29.85 840 24.81 -3.4 25.8 88 -5.1 22.8
19:05 1011 29.85 840 24.81 -3.4 26 88 -5.1 22.8
19:10 1011 29.85 840 24.81 -3.4 25.9 88 -5.2 22.7
19:15 1011 29.85 840 24.81 -3.5 25.7 87 -5.3 22.5
19:20 1011 29.85 840 24.81 -3.4 25.8 87 -5.2 22.6
19:25 1011 29.85 840 24.81 -3.4 25.9 87 -5.3 22.5
19:30 1011 29.85 840 24.81 -3.6 25.6 88 -5.3 22.5
19:35 1011 29.85 840 24.81 -3.7 25.4 89 -5.3 22.5
19:40 1011 29.85 840 24.81 -3.5 25.7 88 -5.2 22.6
19:45 1011 29.85 840 24.81 -3.2 26.2 87 -5.1 22.7
19:50 1011 29.85 840 24.81 -3 26.5 86 -5 22.9
19:55 1011 29.85 840 24.81 -3 26.5 86 -5.1 22.8
20:00 1011 29.85 840 24.81 -2.9 26.8 85 -5.1 22.7
20:05 1011 29.85 840 24.81 -2.8 27 84 -5.2 22.7
20:10 1011 29.85 840 24.81 -2.7 27.1 84 -5.1 22.9
20:15 1011 29.85 840 24.81 -2.6 27.3 85 -4.9 23.2
20:20 1011 29.85 841 24.83 -2.7 27.1 83 -5.2 22.6
20:25 1011 29.85 840 24.81 -2.8 27 83 -5.3 22.5
20:30 1011 29.85 840 24.81 -2.9 26.8 84 -5.2 22.7
20:35 1011 29.85 840 24.81 -3 26.5 84 -5.4 22.3
20:40 1011 29.85 840 24.81 -3.1 26.5 84 -5.4 22.2
20:45 1011 29.85 840 24.81 -3 26.5 84 -5.4 22.2
20:50 1011 29.85 840 24.81 -3 26.6 84 -5.4 22.4
20:55 1011 29.85 840 24.81 -3 26.6 84 -5.4 22.4
21:00 1011 29.85 840 24.81 -3 26.6 85 -5.2 22.6
21:05 1011 29.85 840 24.81 -3.1 26.5 84 -5.3 22.4
21:10 1011 29.85 840 24.81 -3 26.6 84 -5.4 22.3
21:15 1011 29.85 840 24.81 -3 26.6 84 -5.4 22.4
21:20 1011 29.85 840 24.81 -2.9 26.7 84 -5.3 22.4
21:25 1011 29.85 840 24.81 -3 26.6 84 -5.3 22.5
21:30 1011 29.85 840 24.81 -3.1 26.4 85 -5.3 22.4
21:35 1011 29.85 840 24.81 -3.1 26.4 84 -5.4 22.3
21:40 1011 29.85 840 24.81 -3 26.5 84 -5.4 22.3
21:45 1011 29.85 840 24.81 -3.1 26.5 84 -5.4 22.2
21:50 1011 29.85 840 24.81 -3.1 26.5 83 -5.6 22
21:55 1011 29.85 840 24.81 -3.1 26.4 83 -5.6 21.9
22:00 1011 29.85 840 24.81 -3.2 26.2 83 -5.6 21.9
22:05 1011 29.85 840 24.81 -3.4 25.9 84 -5.8 21.6
22:10 1011 29.85 840 24.81 -3.4 25.8 84 -5.8 21.6
22:15 1011 29.85 840 24.81 -3.6 25.6 84 -5.9 21.4
22:20 1011 29.85 840 24.81 -3.8 25.1 84 -6.1 21
22:25 1011 29.85 840 24.81 -4 24.8 85 -6.2 20.8
22:30 1011 29.85 840 24.81 -4 24.8 85 -6.2 20.9
22:35 1011 29.85 840 24.81 -3.7 25.3 85 -6 21.3
22:40 1011 29.85 840 24.81 -3.6 25.6 83 -6 21.2
22:45 1011 29.85 840 24.81 -3.2 26.2 82 -5.9 21.5
22:50 1011 29.85 840 24.81 -3.1 26.4 81 -5.8 21.5
22:55 1011 29.85 840 24.81 -3 26.5 81 -5.8 21.6
23:00 1011 29.85 840 24.81 -2.9 26.8 81 -5.8 21.6
23:05 1011 29.85 840 24.81 -2.9 26.8 80 -5.9 21.4
23:10 1011 29.85 840 24.81 -3 26.7 81 -5.8 21.5
23:15 1011 29.85 840 24.81 -3.1 26.4 80 -6 21.1
23:20 1011 29.85 840 24.81 -3.3 26.1 81 -6.1 21.1
23:25 1011 29.85 841 24.83 -3.4 25.8 82 -6.1 21
23:30 1011 29.85 841 24.83 -3.5 25.8 83 -6 21.3
23:35 1011 29.85 841 24.83 -3.4 25.9 85 -5.6 22
23:40 1012 29.88 841 24.83 -3.3 26 85 -5.4 22.2
23:45 1012 29.88 841 24.83 -3.4 25.8 86 -5.4 22.2
23:50 1012 29.88 841 24.83 -3.6 25.5 87 -5.4 22.3
23:55 1012 29.88 841 24.83 -3.6 25.6 87 -5.5 22.2
24:00 1012 29.88 841 24.83 -3.5 25.7 86 -5.5 22.1